»·PEaware :: WAT380 KTUS-KLAX

WAT380 :: KTUS-KLAX

FLIGHT INFORMATION

Flight Status: Arrived
Operator:
Walker Air Transport
More flights by this operator :: More flights under this callsign
Pilot: Spencer M. (27733)
Aircraft: CESSNA 510 CITATION MUSTANG
(C510)
More flights by this aircraft type
Origin: KTUS Tucson Intl
United States
Destination: KLAX Los Angeles Intl
United States
More flights between these airports :: More routes between these airports
Route: WLDKT3 GBN J104 MESSI ESTWD HLYWD1
File this flight plan on PilotEdge
Remarks:
Altitude:
(Current/Filed)
34,000ft
Speed:
(Current/Filed)
320kts
Departed: 26-Oct-20 08:39 AM
Arrived: 26-Oct-20 10:19 AM
Distance/Time
Traveled:
391nm/1:39
Distance/Time
To Go:
Arrived

Flight Plot

Page will automatically refresh every two minutes.

Flight plan parsing failed; only flown route is shown


Map Options




Map Legend


Flown Route
Filed Route
Departure Airport
Arrival Airport
Navaid (VOR, NDB)
Fix

Horizontal Profiles

Position Reports

Time Latitude Longitude Heading Altitude Ground
Speed
26-Oct-20 08:15 32.119405 -110.936808 253 2647ft 0kts
26-Oct-20 08:16 32.119405 -110.936808 253 2647ft 0kts
26-Oct-20 08:18 32.119405 -110.936808 253 2647ft 0kts
26-Oct-20 08:19 32.119405 -110.936808 253 2647ft 0kts
26-Oct-20 08:20 32.119405 -110.936808 253 2647ft 0kts
26-Oct-20 08:21 32.119405 -110.936808 253 2647ft 0kts
26-Oct-20 08:22 32.119405 -110.936808 253 2647ft 0kts
26-Oct-20 08:23 32.119405 -110.936808 253 2647ft 0kts
26-Oct-20 08:24 32.119405 -110.936808 253 2647ft 0kts
26-Oct-20 08:25 32.119405 -110.936808 253 2647ft 0kts
26-Oct-20 08:26 32.119405 -110.936808 253 2647ft 0kts
26-Oct-20 08:27 32.119401 -110.936820 251 2647ft 0kts
26-Oct-20 08:28 32.119352 -110.936036 97 2648ft 9kts
26-Oct-20 08:29 32.118167 -110.935500 213 2648ft 5kts
26-Oct-20 08:30 32.117525 -110.937179 320 2648ft 10kts
26-Oct-20 08:31 32.115720 -110.936440 136 2648ft 20kts
26-Oct-20 08:32 32.112186 -110.932304 136 2648ft 15kts
26-Oct-20 08:33 32.109567 -110.929207 135 2648ft 16kts
26-Oct-20 08:34 32.105237 -110.924150 136 2648ft 17kts
26-Oct-20 08:35 32.102916 -110.922541 225 2648ft 0kts
26-Oct-20 08:35 32.102916 -110.922541 225 2648ft 0kts
26-Oct-20 08:37 32.102916 -110.922541 225 2647ft 0kts
26-Oct-20 08:37 32.102853 -110.922615 225 2648ft 2kts
26-Oct-20 08:39 32.104888 -110.926207 313 2648ft 72kts
26-Oct-20 08:39 32.128482 -110.953323 313 3201ft 201kts
26-Oct-20 08:40 32.174044 -111.006947 312 5900ft 254kts
26-Oct-20 08:41 32.224025 -111.071193 287 8959ft 264kts
26-Oct-20 08:42 32.237724 -111.157407 276 12088ft 256kts
26-Oct-20 08:43 32.249517 -111.238432 276 14857ft 247kts
26-Oct-20 08:44 32.260854 -111.316971 276 16326ft 252kts
26-Oct-20 08:45 32.272572 -111.397975 275 17679ft 248kts
26-Oct-20 08:46 32.290060 -111.475829 299 19018ft 258kts
26-Oct-20 08:47 32.329719 -111.545213 294 20269ft 254kts
26-Oct-20 08:48 32.368371 -111.614673 294 21503ft 252kts
26-Oct-20 08:49 32.406839 -111.683357 293 22780ft 249kts
26-Oct-20 08:50 32.444885 -111.751062 293 24101ft 246kts
26-Oct-20 08:51 32.482333 -111.817827 292 25414ft 242kts
26-Oct-20 08:52 32.519221 -111.883782 292 26727ft 239kts
26-Oct-20 08:53 32.555753 -111.949067 291 28032ft 236kts
26-Oct-20 08:54 32.591435 -112.013295 291 29328ft 232kts
26-Oct-20 08:55 32.626623 -112.076483 290 30616ft 228kts
26-Oct-20 08:56 32.661034 -112.138284 289 31898ft 221kts
26-Oct-20 08:57 32.694315 -112.198192 289 33164ft 213kts
26-Oct-20 08:58 32.726580 -112.256727 288 34000ft 221kts
26-Oct-20 08:59 32.761734 -112.321013 290 33997ft 241kts
26-Oct-20 09:00 32.799318 -112.388982 290 33995ft 250kts
26-Oct-20 09:01 32.837674 -112.458550 291 33992ft 255kts
26-Oct-20 09:02 32.876873 -112.529715 291 33996ft 258kts
26-Oct-20 09:03 32.916216 -112.601287 291 33990ft 260kts
26-Oct-20 09:04 32.955982 -112.673580 295 34006ft 266kts
26-Oct-20 09:05 33.006872 -112.740672 298 34001ft 274kts
26-Oct-20 09:06 33.057978 -112.808521 298 33990ft 276kts
26-Oct-20 09:07 33.109276 -112.876421 299 34011ft 276kts
26-Oct-20 09:08 33.160524 -112.944411 299 34026ft 275kts
26-Oct-20 09:09 33.211531 -113.012261 299 34043ft 275kts
26-Oct-20 09:10 33.262456 -113.079986 299 34025ft 275kts
26-Oct-20 09:11 33.313637 -113.148296 299 34006ft 275kts
26-Oct-20 09:12 33.364561 -113.216329 299 34003ft 275kts
26-Oct-20 09:13 33.415455 -113.284451 300 34002ft 275kts
26-Oct-20 09:14 33.466304 -113.352705 300 34004ft 275kts
26-Oct-20 09:15 33.517183 -113.421085 300 34010ft 275kts
26-Oct-20 09:16 33.567781 -113.489193 300 34013ft 275kts
26-Oct-20 09:17 33.618628 -113.557848 301 34017ft 275kts
26-Oct-20 09:18 33.669306 -113.626266 301 33998ft 275kts
26-Oct-20 09:19 33.720227 -113.695242 301 34016ft 277kts
26-Oct-20 09:20 33.771590 -113.764904 301 34005ft 280kts
26-Oct-20 09:21 33.811646 -113.841286 286 34004ft 268kts
26-Oct-20 09:22 33.840474 -113.923941 286 34001ft 268kts
26-Oct-20 09:23 33.868934 -114.006923 286 34000ft 269kts
26-Oct-20 09:24 33.897172 -114.090099 286 34023ft 268kts
26-Oct-20 09:25 33.915146 -114.175437 278 34047ft 263kts
26-Oct-20 09:26 33.930180 -114.261720 277 34069ft 263kts
26-Oct-20 09:27 33.944817 -114.347854 278 34068ft 263kts
26-Oct-20 09:28 33.959440 -114.434290 278 34002ft 264kts
26-Oct-20 09:29 33.973919 -114.520830 278 34000ft 263kts
26-Oct-20 09:30 33.988314 -114.606840 278 33999ft 262kts
26-Oct-20 09:31 34.002461 -114.693135 278 34005ft 263kts
26-Oct-20 09:32 34.016817 -114.780409 279 34012ft 268kts
26-Oct-20 09:33 34.031534 -114.869177 280 34009ft 272kts
26-Oct-20 09:34 34.046301 -114.959052 280 34009ft 274kts
26-Oct-20 09:35 34.061047 -115.049316 281 34027ft 275kts
26-Oct-20 09:36 34.075870 -115.140272 281 34013ft 277kts
26-Oct-20 09:37 34.090952 -115.233070 281 33070ft 281kts
26-Oct-20 09:38 34.105601 -115.323818 281 31868ft 271kts
26-Oct-20 09:39 34.120465 -115.416129 281 30876ft 290kts
26-Oct-20 09:40 34.135763 -115.512076 281 29852ft 288kts
26-Oct-20 09:41 34.150589 -115.606029 282 28805ft 284kts
26-Oct-20 09:42 34.162306 -115.700234 265 27781ft 290kts
26-Oct-20 09:43 34.153027 -115.796630 268 26835ft 290kts
26-Oct-20 09:44 34.143935 -115.893903 268 25864ft 293kts
26-Oct-20 09:45 34.134448 -115.991930 268 25049ft 293kts
26-Oct-20 09:46 34.125163 -116.086396 268 25022ft 276kts
26-Oct-20 09:47 34.116348 -116.176155 269 25005ft 264kts
26-Oct-20 09:48 34.107687 -116.263539 269 25009ft 261kts
26-Oct-20 09:49 34.098635 -116.350953 268 24864ft 269kts
26-Oct-20 09:50 34.088776 -116.443050 268 24013ft 282kts
26-Oct-20 09:51 34.078819 -116.534612 269 23993ft 270kts
26-Oct-20 09:52 34.069822 -116.623363 271 23499ft 269kts
26-Oct-20 09:53 34.061501 -116.713401 270 21865ft 267kts
26-Oct-20 09:54 34.053327 -116.800665 271 19903ft 260kts
26-Oct-20 09:55 34.045346 -116.884290 271 19041ft 241kts
26-Oct-20 09:56 34.034820 -116.967689 269 17927ft 257kts
26-Oct-20 09:57 34.024035 -117.052542 270 16897ft 256kts
26-Oct-20 09:58 34.013898 -117.138909 270 15376ft 260kts
26-Oct-20 09:59 34.003921 -117.220866 271 15023ft 229kts
26-Oct-20 10:00 33.995052 -117.297004 270 14029ft 221kts
26-Oct-20 10:01 33.986420 -117.371543 270 12951ft 232kts
26-Oct-20 10:02 33.977679 -117.444825 270 12032ft 206kts
26-Oct-20 10:03 33.976750 -117.510264 289 11742ft 194kts
26-Oct-20 10:04 33.988417 -117.576262 288 10734ft 206kts
26-Oct-20 10:05 34.000011 -117.643431 287 10032ft 196kts
26-Oct-20 10:06 34.004186 -117.709466 269 9515ft 213kts
26-Oct-20 10:07 33.997615 -117.780437 268 8382ft 211kts
26-Oct-20 10:08 33.990920 -117.847946 267 7272ft 207kts
26-Oct-20 10:09 33.984613 -117.910909 268 6886ft 181kts
26-Oct-20 10:10 33.978506 -117.973906 267 5799ft 191kts
26-Oct-20 10:11 33.972417 -118.035288 266 4998ft 173kts
26-Oct-20 10:12 33.966660 -118.093570 266 4511ft 187kts
26-Oct-20 10:14 33.960461 -118.155663 265 3588ft 170kts
26-Oct-20 10:15 33.954425 -118.216100 264 2189ft 183kts
26-Oct-20 10:16 33.949888 -118.273699 269 2033ft 174kts
26-Oct-20 10:17 33.943766 -118.332184 256 857ft 173kts
26-Oct-20 10:18 33.938098 -118.375718 264 331ft 118kts
26-Oct-20 10:19 33.935576 -118.399728 258 130ft 12kts
26-Oct-20 10:20 33.933951 -118.402708 133 130ft 13kts
26-Oct-20 10:21 33.933111 -118.402186 174 130ft 0kts
26-Oct-20 10:22 33.933111 -118.402186 174 130ft 0kts

Navigation Log

Ident Type
Flight plan parsing failed, navigation log unavailable